Time;durP1;ratioP1;P1;durP2;ratioP2;P2;SDS_P1;SDS_P2;PMS_P1;PMS_P2;Temp;Humidity;BMP_temperature;BMP_pressure;BME280_temperature;BME280_humidity;BME280_pressure;Samples;Min_cycle;Max_cycle;Signal;HPM_P1;HPM_P2
2022/08/20 00:00:31;;;;;;;19.98;14.35;;;;;;;18.81;100.00;101358.16;5126893;28;20028;-84
2022/08/20 00:02:59;;;;;;;21.35;13.65;;;;;;;18.79;100.00;101355.59;5114702;28;20039;-84
2022/08/20 00:05:37;;;;;;;17.88;14.18;;;;;;;18.88;100.00;101367.50;5098977;28;20523;-84
2022/08/20 00:08:04;;;;;;;18.50;14.32;;;;;;;18.86;100.00;101359.56;5105793;28;20028;-84
2022/08/20 00:10:32;;;;;;;19.50;14.55;;;;;;;18.87;100.00;101368.50;5101679;28;20051;-84
2022/08/20 00:12:58;;;;;;;20.17;14.43;;;;;;;18.87;100.00;101353.16;5102488;28;20032;-84
2022/08/20 00:15:31;;;;;;;17.92;14.45;;;;;;;18.90;100.00;101352.94;5102245;28;20022;-84
2022/08/20 00:17:57;;;;;;;20.25;15.10;;;;;;;18.98;100.00;101343.38;5091929;28;20381;-84
2022/08/20 00:20:25;;;;;;;19.70;14.63;;;;;;;18.95;100.00;101341.78;5099876;28;20026;-84
2022/08/20 00:22:50;;;;;;;19.95;14.77;;;;;;;18.97;100.00;101328.16;5100811;28;20023;-83
2022/08/20 00:25:17;;;;;;;17.42;14.15;;;;;;;19.00;100.00;101347.69;5098783;28;20089;-84
2022/08/20 00:27:43;;;;;;;18.33;14.45;;;;;;;19.03;100.00;101351.97;5105369;28;20099;-84
2022/08/20 00:30:11;;;;;;;19.33;13.93;;;;;;;19.00;100.00;101361.16;5102560;28;20230;-84
2022/08/20 00:32:59;;;;;;;16.65;13.80;;;;;;;19.00;100.00;101344.97;5108800;28;20096;-83
2022/08/20 00:35:27;;;;;;;17.35;13.57;;;;;;;19.01;100.00;101338.59;5103917;28;20546;-83
2022/08/20 00:37:53;;;;;;;19.77;14.82;;;;;;;19.06;100.00;101347.22;5106430;28;20032;-84
2022/08/20 00:40:22;;;;;;;16.83;13.85;;;;;;;19.09;100.00;101348.78;5099810;28;20454;-83
2022/08/20 00:42:53;;;;;;;21.13;13.95;;;;;;;19.11;100.00;101353.09;5103900;28;20043;-84
2022/08/20 00:45:19;;;;;;;17.45;13.88;;;;;;;19.10;100.00;101345.09;5099559;28;20094;-84
2022/08/20 00:47:45;;;;;;;16.35;13.10;;;;;;;19.13;100.00;101342.16;5099011;28;20384;-85
2022/08/20 00:50:12;;;;;;;19.42;14.18;;;;;;;19.11;100.00;101344.16;5094857;28;20019;-84
2022/08/20 00:52:41;;;;;;;19.00;14.20;;;;;;;19.03;100.00;101349.28;5107758;28;20039;-84
2022/08/20 00:55:10;;;;;;;17.48;14.30;;;;;;;18.98;100.00;101349.66;5094585;28;20050;-84
2022/08/20 00:57:56;;;;;;;18.77;14.77;;;;;;;18.91;100.00;101343.88;5106641;28;20079;-83
2022/08/20 01:00:31;;;;;;;17.33;14.25;;;;;;;18.96;100.00;101350.72;5099751;28;20023;-84
2022/08/20 01:02:59;;;;;;;18.70;14.32;;;;;;;18.90;100.00;101349.38;5099713;28;20059;-84
2022/08/20 01:05:24;;;;;;;17.42;14.15;;;;;;;18.95;100.00;101349.03;5091601;28;20020;-85
2022/08/20 01:07:52;;;;;;;17.40;13.35;;;;;;;18.99;100.00;101350.50;5105485;28;20089;-84
2022/08/20 01:10:25;;;;;;;17.50;13.13;;;;;;;18.97;100.00;101341.66;5103501;28;20034;-84
2022/08/20 01:12:52;;;;;;;19.75;14.60;;;;;;;18.96;100.00;101339.94;5098603;28;20035;-82
2022/08/20 01:15:21;;;;;;;18.10;13.45;;;;;;;18.89;100.00;101340.44;5099491;28;20484;-83
2022/08/20 01:17:50;;;;;;;20.73;14.18;;;;;;;18.90;100.00;101339.47;5095196;28;20404;-83
2022/08/20 01:20:19;;;;;;;20.60;13.95;;;;;;;18.88;100.00;101345.94;5094968;28;20476;-83
2022/08/20 01:25:54;;;;;;;15.32;12.55;;;;;;;18.87;100.00;101350.47;5107210;28;20081;-83
2022/08/20 01:28:25;;;;;;;15.30;11.98;;;;;;;18.87;100.00;101355.88;5095315;28;20505;-83
2022/08/20 01:30:51;;;;;;;16.35;13.50;;;;;;;18.88;100.00;101354.88;5099980;28;20115;-83
2022/08/20 01:33:18;;;;;;;17.58;14.10;;;;;;;18.85;100.00;101349.75;5110167;28;20779;-83
2022/08/20 01:35:44;;;;;;;15.82;12.95;;;;;;;18.80;100.00;101340.28;5100017;28;20493;-83
2022/08/20 01:38:10;;;;;;;18.92;14.27;;;;;;;18.81;100.00;101337.47;5102477;28;20040;-83
2022/08/20 01:40:57;;;;;;;17.25;14.98;;;;;;;18.81;100.00;101347.38;5104962;28;20064;-83
2022/08/20 01:43:23;;;;;;;20.15;15.27;;;;;;;18.69;100.00;101346.47;5105725;28;20028;-84
2022/08/20 01:45:50;;;;;;;17.90;15.13;;;;;;;18.69;100.00;101345.63;5109860;28;20465;-84
2022/08/20 01:48:16;;;;;;;18.30;16.38;;;;;;;18.69;100.00;101340.25;5102998;28;20023;-82
2022/08/20 01:50:49;;;;;;;21.98;15.95;;;;;;;18.70;100.00;101342.84;5097456;28;20077;-83
2022/08/20 01:53:32;;;;;;;21.50;16.83;;;;;;;18.64;100.00;101341.44;5105903;28;20136;-82
2022/08/20 01:55:57;;;;;;;22.65;16.15;;;;;;;18.59;100.00;101348.16;5107501;28;20039;-84
2022/08/20 01:58:23;;;;;;;22.27;17.05;;;;;;;18.53;100.00;101345.94;5116146;28;20035;-83
2022/08/20 02:00:48;;;;;;;23.77;17.92;;;;;;;18.51;100.00;101350.56;5116603;28;20110;-83
2022/08/20 02:03:13;;;;;;;22.58;18.00;;;;;;;18.42;100.00;101346.75;5123807;28;20041;-84
2022/08/20 02:05:39;;;;;;;22.30;18.38;;;;;;;18.41;100.00;101350.41;5112039;28;20023;-84
2022/08/20 02:08:04;;;;;;;25.40;18.40;;;;;;;18.42;100.00;101355.69;5115341;28;20028;-83
2022/08/20 02:10:30;;;;;;;24.38;18.02;;;;;;;18.48;100.00;101348.13;5116841;28;20476;-84
2022/08/20 02:12:57;;;;;;;24.35;20.23;;;;;;;18.49;100.00;101350.69;5103350;28;20397;-84
2022/08/20 02:15:23;;;;;;;24.15;20.25;;;;;;;18.56;100.00;101353.75;5099504;28;20077;-84
2022/08/20 02:17:49;;;;;;;31.00;21.80;;;;;;;18.50;100.00;101346.16;5104844;28;20046;-84
2022/08/20 02:20:22;;;;;;;27.98;21.23;;;;;;;18.56;100.00;101365.44;5102437;28;20019;-84
2022/08/20 02:22:54;;;;;;;26.65;19.20;;;;;;;18.58;100.00;101354.53;5107909;28;20111;-84
2022/08/20 02:25:22;;;;;;;25.92;20.55;;;;;;;18.57;100.00;101360.91;5108509;28;20028;-84
2022/08/20 02:27:50;;;;;;;27.85;19.80;;;;;;;18.59;100.00;101353.53;5106681;28;20245;-82
2022/08/20 02:30:46;;;;;;;26.52;19.77;;;;;;;18.62;100.00;101356.00;5106113;28;20091;-82
2022/08/20 02:33:13;;;;;;;26.30;19.90;;;;;;;18.54;100.00;101359.28;5092018;28;20024;-83
2022/08/20 02:35:41;;;;;;;28.17;20.27;;;;;;;18.53;100.00;101349.50;5087989;28;20032;-82
2022/08/20 02:38:07;;;;;;;29.67;21.73;;;;;;;18.50;100.00;101354.25;5093692;28;20074;-83
2022/08/20 02:40:33;;;;;;;29.65;21.85;;;;;;;18.45;100.00;101365.38;5093329;28;20059;-84
2022/08/20 02:43:00;;;;;;;28.40;22.42;;;;;;;18.41;100.00;101364.75;5105213;28;20026;-83
2022/08/20 02:45:26;;;;;;;29.92;22.30;;;;;;;18.45;100.00;101361.84;5106795;28;20026;-84
2022/08/20 02:47:52;;;;;;;33.85;22.45;;;;;;;18.39;100.00;101364.03;5106772;28;20031;-83
2022/08/20 02:50:19;;;;;;;29.95;22.27;;;;;;;18.40;100.00;101365.72;5099837;28;20020;-84
2022/08/20 02:52:45;;;;;;;30.65;23.35;;;;;;;18.45;100.00;101367.22;5089174;28;20035;-84
2022/08/20 02:55:12;;;;;;;31.33;24.52;;;;;;;18.40;100.00;101360.34;5105212;28;20231;-83
2022/08/20 02:57:38;;;;;;;35.95;25.13;;;;;;;18.45;100.00;101361.84;5095686;28;20395;-84
2022/08/20 03:00:07;;;;;;;33.88;24.58;;;;;;;18.39;100.00;101358.63;5096296;28;20027;-84
2022/08/20 03:02:32;;;;;;;33.38;24.65;;;;;;;18.38;100.00;101356.88;5106405;28;20369;-83
2022/08/20 03:04:57;;;;;;;34.97;24.17;;;;;;;18.39;100.00;101365.81;5098743;28;20038;-84
2022/08/20 03:07:23;;;;;;;36.20;25.13;;;;;;;18.40;100.00;101370.28;5091249;28;20058;-83
2022/08/20 03:09:48;;;;;;;35.78;25.10;;;;;;;18.39;100.00;101366.72;5100122;28;20569;-84
2022/08/20 03:12:14;;;;;;;35.53;26.17;;;;;;;18.36;100.00;101364.25;5099049;28;20092;-82
2022/08/20 03:14:39;;;;;;;36.47;24.67;;;;;;;18.35;100.00;101367.91;5103083;28;20023;-83
2022/08/20 03:17:04;;;;;;;33.13;26.27;;;;;;;18.40;100.00;101375.66;5092328;28;20579;-83
2022/08/20 03:19:30;;;;;;;33.03;25.92;;;;;;;18.36;100.00;101372.31;5101952;28;20039;-84
2022/08/20 03:21:55;;;;;;;33.45;26.05;;;;;;;18.34;100.00;101376.97;5102300;28;20085;-84
2022/08/20 03:24:20;;;;;;;39.10;27.33;;;;;;;18.25;100.00;101366.03;5100669;28;20023;-84
2022/08/20 03:26:46;;;;;;;36.10;26.88;;;;;;;18.28;100.00;101376.56;5099568;28;20555;-83
2022/08/20 03:29:12;;;;;;;34.92;26.45;;;;;;;18.25;100.00;101374.97;5092987;28;20032;-84
2022/08/20 03:31:37;;;;;;;36.47;26.58;;;;;;;18.22;100.00;101377.00;5103025;28;20024;-83
2022/08/20 03:34:03;;;;;;;34.53;26.33;;;;;;;18.15;100.00;101374.78;5093297;27;20576;-83
2022/08/20 03:36:29;;;;;;;37.85;27.48;;;;;;;18.15;100.00;101380.19;5101514;28;20607;-84
2022/08/20 03:38:57;;;;;;;40.65;27.45;;;;;;;18.14;100.00;101385.66;5097256;28;20126;-83
2022/08/20 03:41:23;;;;;;;35.30;25.65;;;;;;;18.13;100.00;101383.94;5095619;28;20050;-83
2022/08/20 03:43:49;;;;;;;34.78;24.95;;;;;;;18.15;100.00;101382.88;5099865;28;20031;-83
2022/08/20 03:46:14;;;;;;;39.72;28.45;;;;;;;18.10;100.00;101374.28;5096321;28;20020;-83
2022/08/20 03:48:40;;;;;;;37.70;27.40;;;;;;;18.13;100.00;101386.66;5094072;28;20626;-83
2022/08/20 03:51:06;;;;;;;38.78;27.75;;;;;;;18.13;100.00;101379.41;5093129;28;20030;-84
2022/08/20 03:53:31;;;;;;;40.22;28.00;;;;;;;18.16;100.00;101384.59;5102763;28;20394;-84
2022/08/20 03:56:00;;;;;;;39.20;28.25;;;;;;;18.17;100.00;101382.75;5099854;28;20030;-83
2022/08/20 03:58:29;;;;;;;41.85;28.33;;;;;;;18.20;100.00;101387.06;5100242;27;20047;-84
2022/08/20 04:00:55;;;;;;;38.30;27.85;;;;;;;18.18;100.00;101379.06;5107149;28;20031;-84
2022/08/20 04:03:21;;;;;;;40.97;29.25;;;;;;;18.14;100.00;101381.16;5098326;28;20050;-83
2022/08/20 04:05:48;;;;;;;45.70;29.73;;;;;;;18.17;100.00;101388.13;5099360;28;20925;-84
2022/08/20 04:08:17;;;;;;;47.10;32.58;;;;;;;18.19;100.00;101390.75;5103912;28;20123;-85
2022/08/20 04:10:45;;;;;;;44.88;32.33;;;;;;;18.18;100.00;101392.53;5092200;28;20051;-84
2022/08/20 04:13:11;;;;;;;44.50;32.70;;;;;;;18.14;100.00;101391.94;5100830;28;20426;-84
2022/08/20 04:15:36;;;;;;;50.58;34.72;;;;;;;18.08;100.00;101386.13;5104679;28;20032;-83
2022/08/20 04:18:06;;;;;;;54.13;35.92;;;;;;;18.08;100.00;101396.91;5105792;28;20020;-83
2022/08/20 04:20:33;;;;;;;47.95;32.08;;;;;;;18.07;100.00;101398.75;5090062;28;20127;-83
2022/08/20 04:22:58;;;;;;;42.42;29.35;;;;;;;18.02;100.00;101398.22;5095603;28;20036;-83
2022/08/20 04:25:24;;;;;;;43.22;28.48;;;;;;;17.95;100.00;101391.56;5085109;28;20020;-83
2022/08/20 04:27:49;;;;;;;45.30;32.50;;;;;;;17.93;100.00;101393.50;5094607;28;20459;-82
2022/08/20 04:30:18;;;;;;;52.67;34.90;;;;;;;17.90;100.00;101397.28;5090929;28;20024;-83
2022/08/20 04:32:43;;;;;;;48.60;34.88;;;;;;;17.84;99.99;101391.47;5099703;28;20097;-85
2022/08/20 04:35:13;;;;;;;51.92;34.90;;;;;;;17.86;100.00;101408.41;5094840;28;20460;-84
2022/08/20 04:37:39;;;;;;;56.00;35.55;;;;;;;17.84;100.00;101410.31;5090715;28;20036;-84
2022/08/20 04:42:52;;;;;;;50.05;33.05;;;;;;;17.86;100.00;101422.72;5094313;28;20048;-84
2022/08/20 04:45:18;;;;;;;48.05;33.08;;;;;;;17.85;100.00;101415.63;5097676;28;20039;-85
2022/08/20 04:47:43;;;;;;;44.72;31.05;;;;;;;17.80;100.00;101419.59;5090285;28;20068;-85
2022/08/20 04:50:10;;;;;;;46.33;30.10;;;;;;;17.79;100.00;101420.56;5098763;28;20023;-83
2022/08/20 04:52:36;;;;;;;37.65;26.38;;;;;;;17.74;99.75;101423.59;5089741;28;20048;-84
2022/08/20 04:55:04;;;;;;;40.40;28.13;;;;;;;17.75;100.00;101432.53;5103181;28;20024;-85
2022/08/20 04:57:29;;;;;;;42.28;26.95;;;;;;;17.70;100.00;101435.53;5102876;28;20067;-85
2022/08/20 04:59:54;;;;;;;41.30;26.38;;;;;;;17.66;100.00;101434.03;5103684;28;20481;-86
2022/08/20 05:02:21;;;;;;;36.95;25.98;;;;;;;17.67;99.27;101446.50;5103232;28;20036;-84
2022/08/20 05:04:46;;;;;;;40.30;25.80;;;;;;;17.65;99.70;101443.06;5099537;28;20047;-84
2022/08/20 05:07:13;;;;;;;37.03;24.40;;;;;;;17.65;99.03;101441.25;5105754;28;20119;-84
2022/08/20 05:09:40;;;;;;;44.70;29.40;;;;;;;17.62;99.35;101438.75;5110145;28;20054;-84
2022/08/20 05:12:06;;;;;;;42.92;29.17;;;;;;;17.66;99.18;101447.47;5100763;28;20084;-85
2022/08/20 05:14:31;;;;;;;44.75;29.13;;;;;;;17.67;99.63;101457.28;5096229;28;20027;-86
2022/08/20 05:16:56;;;;;;;44.75;29.27;;;;;;;17.64;99.64;101452.09;5099769;28;20119;-86
2022/08/20 05:19:22;;;;;;;44.30;31.05;;;;;;;17.67;99.99;101454.56;5094105;28;20381;-85
2022/08/20 05:21:47;;;;;;;46.47;31.77;;;;;;;17.69;99.23;101460.72;5093885;28;20032;-85
2022/08/20 05:24:13;;;;;;;47.60;32.85;;;;;;;17.68;99.76;101456.28;5103591;28;20020;-85
2022/08/20 05:26:39;;;;;;;47.53;32.65;;;;;;;17.72;99.45;101459.63;5107071;28;20031;-86
2022/08/20 05:29:05;;;;;;;49.78;33.53;;;;;;;17.68;99.66;101441.03;5095778;28;20024;-84
2022/08/20 05:31:32;;;;;;;52.40;33.45;;;;;;;17.70;98.98;101440.91;5108261;28;20031;-85
2022/08/20 05:33:57;;;;;;;48.72;34.03;;;;;;;17.76;99.63;101451.25;5104572;28;20031;-86
2022/08/20 05:36:22;;;;;;;51.80;32.75;;;;;;;17.84;98.87;101456.09;5108910;28;20334;-86
2022/08/20 05:38:48;;;;;;;49.30;32.08;;;;;;;17.86;98.01;101454.19;5106213;28;20031;-85
2022/08/20 05:41:13;;;;;;;51.78;32.30;;;;;;;17.89;99.13;101460.22;5121260;28;20024;-86
2022/08/20 05:43:39;;;;;;;45.20;31.35;;;;;;;17.92;98.13;101454.56;5106043;28;20088;-85
2022/08/20 05:46:04;;;;;;;48.78;31.58;;;;;;;17.95;98.26;101461.59;5110602;28;20023;-86
2022/08/20 05:48:33;;;;;;;43.47;30.27;;;;;;;17.88;96.41;101455.78;5108783;28;20112;-85
2022/08/20 05:50:59;;;;;;;49.90;30.90;;;;;;;17.89;98.19;101457.50;5106456;28;20030;-85
2022/08/20 05:53:24;;;;;;;47.40;30.65;;;;;;;17.97;97.40;101451.53;5102782;27;20452;-84
2022/08/20 05:55:51;;;;;;;43.05;29.05;;;;;;;18.01;96.38;101466.50;5101396;28;20072;-86
2022/08/20 05:58:21;;;;;;;48.38;29.10;;;;;;;17.92;95.99;101462.66;5104035;28;20043;-85
2022/08/20 06:00:47;;;;;;;54.08;30.35;;;;;;;18.03;96.89;101471.81;5109792;28;20028;-85
2022/08/20 06:05:57;;;;;;;46.45;29.98;;;;;;;18.00;96.91;101463.94;5117660;28;20073;-86
2022/08/20 06:08:23;;;;;;;56.00;33.30;;;;;;;18.04;96.42;101470.84;5108270;28;20015;-84
2022/08/20 06:10:49;;;;;;;50.30;30.05;;;;;;;18.07;96.47;101470.63;5115181;28;21530;-84
2022/08/20 06:13:14;;;;;;;49.70;29.77;;;;;;;18.05;96.03;101473.41;5103238;28;20044;-86
2022/08/20 06:15:39;;;;;;;53.03;30.63;;;;;;;18.01;95.62;101473.75;5115441;28;20056;-87
2022/08/20 06:18:06;;;;;;;51.80;31.95;;;;;;;18.03;95.93;101475.38;5115220;28;20015;-87
2022/08/20 06:20:32;;;;;;;46.88;30.13;;;;;;;18.05;96.32;101477.94;5118718;28;20014;-88
2022/08/20 06:22:58;;;;;;;47.15;30.20;;;;;;;18.06;95.27;101479.69;5104491;28;20449;-88
2022/08/20 06:25:23;;;;;;;49.05;30.15;;;;;;;18.11;95.42;101472.13;5108572;28;20051;-87
2022/08/20 06:27:48;;;;;;;54.53;31.30;;;;;;;18.19;95.33;101466.19;5111996;28;20071;-86
2022/08/20 06:30:15;;;;;;;51.92;32.58;;;;;;;18.17;95.11;101483.28;5097465;28;20385;-86
2022/08/20 06:32:41;;;;;;;50.50;30.38;;;;;;;18.12;95.41;101469.31;5097553;28;20378;-87
2022/08/20 06:35:08;;;;;;;52.75;33.00;;;;;;;18.22;95.53;101482.09;5108800;28;20030;-87
2022/08/20 06:37:36;;;;;;;50.58;31.73;;;;;;;18.22;94.85;101482.97;5100119;28;20040;-87
2022/08/20 06:40:18;;;;;;;46.15;30.30;;;;;;;18.29;94.82;101483.38;5099259;28;20053;-87
2022/08/20 06:42:43;;;;;;;46.53;30.73;;;;;;;18.19;94.07;101480.50;5105870;28;20008;-87
2022/08/20 06:45:11;;;;;;;46.88;32.45;;;;;;;18.14;95.08;101479.97;5103085;28;20038;-87
2022/08/20 06:47:40;;;;;;;50.72;31.83;;;;;;;18.15;94.83;101477.16;5106379;28;20073;-87
2022/08/20 06:50:37;;;;;;;47.88;31.02;;;;;;;18.32;95.22;101475.09;5099373;28;20024;-86
2022/08/20 06:53:04;;;;;;;49.55;29.63;;;;;;;18.35;93.50;101474.84;5099682;28;20035;-87
2022/08/20 06:55:30;;;;;;;50.20;31.15;;;;;;;18.35;94.01;101467.63;5096459;28;20035;-88
2022/08/20 06:58:03;;;;;;;47.38;30.27;;;;;;;18.36;93.56;101477.44;5101487;28;20364;-88
2022/08/20 07:00:31;;;;;;;52.10;32.72;;;;;;;18.35;94.49;101486.50;5110846;28;20027;-87
2022/08/20 07:02:59;;;;;;;47.00;29.85;;;;;;;18.41;95.14;101486.03;5118569;27;20036;-87
2022/08/20 07:05:25;;;;;;;46.47;29.05;;;;;;;18.42;93.36;101482.34;5098777;28;20462;-87
2022/08/20 07:07:51;;;;;;;46.47;29.40;;;;;;;18.40;93.63;101475.38;5102157;28;20035;-87
2022/08/20 07:10:19;;;;;;;44.25;29.05;;;;;;;18.50;93.75;101489.88;5110597;28;20416;-87
2022/08/20 07:12:45;;;;;;;48.22;30.25;;;;;;;18.50;93.43;101491.72;5102877;28;20024;-88
2022/08/20 07:15:12;;;;;;;50.55;29.67;;;;;;;18.54;94.79;101498.63;5109810;28;20035;-87
2022/08/20 07:17:38;;;;;;;50.40;30.83;;;;;;;18.50;93.83;101494.41;5102664;28;20043;-87
2022/08/20 07:20:14;;;;;;;50.33;30.30;;;;;;;18.44;93.57;101486.81;5101513;28;20375;-88
2022/08/20 07:22:40;;;;;;;46.85;30.90;;;;;;;18.41;93.46;101491.44;5103182;28;20429;-88
2022/08/20 07:25:07;;;;;;;47.72;29.67;;;;;;;18.47;94.26;101497.34;5114044;28;20110;-87
2022/08/20 07:27:33;;;;;;;47.30;28.05;;;;;;;18.55;93.43;101506.56;5113014;28;20039;-89
2022/08/20 07:32:44;;;;;;;46.70;27.40;;;;;;;18.53;91.97;101503.16;5115972;28;20066;-92
2022/08/20 07:35:15;;;;;;;51.15;28.80;;;;;;;18.50;93.63;101505.19;5120010;28;20157;-90
2022/08/20 07:37:45;;;;;;;49.73;29.37;;;;;;;18.61;93.65;101513.38;5123153;28;20039;-86
2022/08/20 07:40:17;;;;;;;51.22;29.42;;;;;;;18.75;92.84;101515.06;5114155;28;20062;-85
2022/08/20 07:42:42;;;;;;;46.67;28.88;;;;;;;18.73;90.66;101522.38;5095935;28;20024;-85
2022/08/20 07:45:10;;;;;;;49.65;29.70;;;;;;;18.62;91.89;101517.78;5100847;28;20066;-86
2022/08/20 07:47:40;;;;;;;49.95;28.67;;;;;;;18.67;92.22;101526.38;5118406;28;20023;-85
2022/08/20 07:50:07;;;;;;;50.47;29.27;;;;;;;18.73;90.39;101525.09;5102570;28;20405;-86
2022/08/20 07:52:34;;;;;;;47.00;28.75;;;;;;;18.72;91.28;101531.47;5113052;28;20039;-85
2022/08/20 07:55:01;;;;;;;51.38;29.98;;;;;;;18.79;92.05;101525.50;5107018;28;20044;-84
2022/08/20 07:57:26;;;;;;;49.72;29.42;;;;;;;18.91;90.99;101538.06;5098903;28;20038;-85
2022/08/20 07:59:52;;;;;;;44.58;29.67;;;;;;;19.10;90.97;101537.56;5116573;28;20015;-84
2022/08/20 08:02:17;;;;;;;53.05;30.20;;;;;;;19.36;90.22;101537.41;5109187;28;20491;-86
2022/08/20 08:04:42;;;;;;;44.67;30.13;;;;;;;19.71;87.96;101545.50;5110787;28;20065;-85
2022/08/20 08:07:08;;;;;;;43.53;28.83;;;;;;;20.02;86.11;101551.16;5108553;28;20105;-86
2022/08/20 08:09:34;;;;;;;41.80;29.02;;;;;;;20.07;84.73;101549.84;5108228;28;20084;-85
2022/08/20 08:12:01;;;;;;;44.28;27.77;;;;;;;20.08;84.69;101550.69;5102170;28;20031;-86
2022/08/20 08:14:30;;;;;;;42.20;28.45;;;;;;;20.04;84.39;101551.91;5110661;28;20020;-86
2022/08/20 08:16:58;;;;;;;41.63;28.58;;;;;;;20.00;85.16;101545.03;5109431;27;20480;-85
2022/08/20 08:19:27;;;;;;;46.78;30.85;;;;;;;19.83;85.23;101539.13;5103141;28;20063;-85
2022/08/20 08:21:52;;;;;;;56.47;36.65;;;;;;;19.88;85.83;101550.41;5106415;28;20037;-86
2022/08/20 08:24:18;;;;;;;37.88;26.08;;;;;;;19.95;84.44;101549.97;5110771;28;20098;-85
2022/08/20 08:26:43;;;;;;;42.38;28.13;;;;;;;20.03;85.09;101552.91;5102302;28;20030;-86
2022/08/20 08:29:10;;;;;;;45.35;27.08;;;;;;;20.08;84.13;101550.69;5110522;28;20042;-85
2022/08/20 08:31:36;;;;;;;41.90;27.55;;;;;;;20.10;83.56;101543.31;5098380;28;20477;-87
2022/08/20 08:34:02;;;;;;;39.85;26.80;;;;;;;20.77;83.34;101551.38;5097991;28;20019;-86
2022/08/20 08:36:27;;;;;;;35.30;26.08;;;;;;;22.25;75.74;101551.34;5110034;28;20020;-86
2022/08/20 08:38:53;;;;;;;37.17;25.58;;;;;;;23.23;71.49;101558.72;5093620;28;20282;-86
2022/08/20 08:41:46;;;;;;;40.38;26.08;;;;;;;23.07;72.88;101561.13;5089230;28;20161;-86
2022/08/20 08:44:22;;;;;;;39.55;26.40;;;;;;;23.03;70.93;101557.00;5103302;28;20020;-86
2022/08/20 08:46:50;;;;;;;42.00;27.15;;;;;;;22.53;71.61;101565.13;5098364;28;20104;-87
2022/08/20 08:49:19;;;;;;;38.75;25.45;;;;;;;22.07;72.71;101569.19;5104837;28;20031;-86
2022/08/20 08:51:49;;;;;;;32.15;23.77;;;;;;;21.53;73.61;101568.47;5095596;28;20032;-87
2022/08/20 08:54:20;;;;;;;30.48;23.38;;;;;;;22.24;74.78;101568.63;5089473;28;20449;-87
2022/08/20 08:56:46;;;;;;;32.63;23.58;;;;;;;24.18;67.44;101566.00;5108531;28;20024;-88
2022/08/20 08:59:11;;;;;;;30.00;22.23;;;;;;;25.84;61.66;101563.88;5102532;28;20032;-87
2022/08/20 09:01:45;;;;;;;26.67;17.75;;;;;;;27.15;57.35;101564.47;5096188;28;20055;-87
2022/08/20 09:04:15;;;;;;;24.95;17.30;;;;;;;28.09;52.94;101571.25;5092432;28;20048;-87
2022/08/20 09:06:42;;;;;;;21.63;14.93;;;;;;;29.12;46.83;101566.53;5089597;28;20027;-87
2022/08/20 09:09:31;;;;;;;26.52;20.02;;;;;;;29.42;52.61;101572.13;5102830;28;20042;-87
2022/08/20 09:12:05;;;;;;;22.63;16.15;;;;;;;29.61;47.57;101579.88;5086304;28;20032;-88
2022/08/20 09:14:30;;;;;;;23.40;16.35;;;;;;;29.53;45.78;101572.53;5104655;28;20111;-87
2022/08/20 09:16:55;;;;;;;18.98;15.68;;;;;;;29.26;45.17;101571.22;5108585;28;20647;-87
2022/08/20 09:19:20;;;;;;;20.10;14.90;;;;;;;29.75;44.12;101579.03;5103988;28;20035;-88
2022/08/20 09:21:46;;;;;;;25.15;17.80;;;;;;;29.75;44.75;101576.31;5095863;28;20061;-82
2022/08/20 09:24:11;;;;;;;26.38;19.30;;;;;;;29.35;47.05;101573.91;5101915;28;20080;-87
2022/08/20 09:26:36;;;;;;;21.52;15.57;;;;;;;29.60;43.36;101563.63;5103086;28;20026;-85
2022/08/20 09:29:02;;;;;;;19.60;13.95;;;;;;;29.37;44.80;101569.09;5103841;28;20036;-87
2022/08/20 09:31:27;;;;;;;19.73;13.38;;;;;;;30.82;42.98;101577.88;5100308;28;20031;-87
2022/08/20 09:33:52;;;;;;;23.08;16.25;;;;;;;32.09;38.45;101561.47;5101819;28;20110;-87
2022/08/20 09:36:18;;;;;;;23.23;14.55;;;;;;;33.43;37.72;101564.53;5099066;28;20562;-87
2022/08/20 09:38:43;;;;;;;19.25;14.05;;;;;;;32.92;37.56;101568.69;5106240;28;20539;-85
2022/08/20 09:41:09;;;;;;;17.70;13.65;;;;;;;30.97;39.85;101570.41;5103409;28;20055;-85
2022/08/20 09:43:34;;;;;;;14.93;11.70;;;;;;;30.49;39.60;101564.53;5099752;28;20122;-87
2022/08/20 09:46:00;;;;;;;15.60;11.63;;;;;;;31.78;37.91;101559.13;5106031;28;20047;-87
2022/08/20 09:48:25;;;;;;;14.32;11.25;;;;;;;32.93;35.99;101558.50;5113857;27;20031;-86
2022/08/20 09:50:50;;;;;;;13.65;10.52;;;;;;;33.86;31.79;101566.84;5114817;27;20020;-86
2022/08/20 09:53:18;;;;;;;14.10;10.30;;;;;;;34.14;31.39;101573.00;5121824;27;20016;-87
2022/08/20 09:55:47;;;;;;;15.23;9.75;;;;;;;33.33;32.79;101575.97;5109299;27;20028;-87
2022/08/20 09:58:24;;;;;;;14.65;8.68;;;;;;;32.07;35.20;101575.47;5116577;28;20031;-85
2022/08/20 10:00:49;;;;;;;11.60;6.13;;;;;;;31.32;33.29;101556.84;5106458;28;20032;-87
2022/08/20 10:03:15;;;;;;;12.25;5.78;;;;;;;29.92;35.36;101570.66;5118222;27;20035;-86
2022/08/20 10:05:40;;;;;;;10.88;7.03;;;;;;;30.39;34.74;101564.84;5117648;27;20027;-87
2022/08/20 10:08:07;;;;;;;9.82;6.22;;;;;;;32.35;35.18;101572.63;5114662;27;20031;-87
2022/08/20 10:10:33;;;;;;;12.10;6.78;;;;;;;33.96;34.13;101567.28;5104259;28;20039;-87
2022/08/20 10:12:58;;;;;;;8.75;5.00;;;;;;;34.54;29.56;101567.38;5111744;27;20320;-86
2022/08/20 10:15:24;;;;;;;9.63;5.07;;;;;;;32.40;31.20;101570.19;5109644;27;20052;-86
2022/08/20 10:17:49;;;;;;;8.30;4.25;;;;;;;32.85;31.58;101572.44;5108338;27;20047;-86
2022/08/20 10:20:17;;;;;;;9.50;4.55;;;;;;;34.35;29.61;101559.97;5109276;27;20092;-87
2022/08/20 10:22:42;;;;;;;9.00;4.65;;;;;;;35.39;27.82;101558.81;5110945;27;20484;-87
2022/08/20 10:25:09;;;;;;;13.23;4.30;;;;;;;36.41;27.56;101567.63;5112101;27;20016;-87
2022/08/20 10:27:35;;;;;;;9.43;4.18;;;;;;;37.28;24.14;101568.16;5109778;27;20027;-87
2022/08/20 10:30:01;;;;;;;7.82;3.50;;;;;;;37.49;22.88;101569.53;5114236;27;20106;-87
2022/08/20 10:32:26;;;;;;;6.57;3.60;;;;;;;37.85;23.81;101570.44;5110595;27;20008;-87
2022/08/20 10:34:51;;;;;;;8.77;4.25;;;;;;;38.24;22.82;101579.09;5106175;27;20276;-87
2022/08/20 10:37:19;;;;;;;7.00;3.28;;;;;;;36.72;25.05;101585.19;5108510;27;20039;-86
2022/08/20 10:39:45;;;;;;;9.20;3.83;;;;;;;36.09;24.33;101583.56;5101013;27;20039;-86
2022/08/20 10:42:11;;;;;;;6.60;3.20;;;;;;;36.94;26.31;101585.56;5104820;27;20515;-87
2022/08/20 10:44:36;;;;;;;7.25;3.40;;;;;;;37.85;23.15;101571.25;5104249;27;20416;-88
2022/08/20 10:47:18;;;;;;;9.93;3.47;;;;;;;38.69;23.36;101579.25;5113920;27;20024;-86
2022/08/20 10:49:44;;;;;;;6.00;3.17;;;;;;;39.35;20.99;101579.72;5106835;28;20404;-88
2022/08/20 10:52:09;;;;;;;7.15;2.72;;;;;;;38.85;21.81;101577.66;5121522;27;20286;-87
2022/08/20 10:54:35;;;;;;;5.45;2.35;;;;;;;38.34;21.59;101588.56;5122982;27;20023;-86
2022/08/20 10:57:03;;;;;;;6.32;2.90;;;;;;;38.49;21.74;101581.63;5125353;27;20023;-87
2022/08/20 10:59:29;;;;;;;7.65;2.60;;;;;;;38.68;20.69;101587.88;5118488;27;20096;-87
2022/08/20 11:01:54;;;;;;;9.80;3.28;;;;;;;38.97;19.85;101586.81;5106390;27;20039;-87
2022/08/20 11:04:20;;;;;;;6.37;2.57;;;;;;;39.38;19.48;101573.66;5106155;28;20355;-87
2022/08/20 11:06:45;;;;;;;6.85;2.63;;;;;;;40.09;18.76;101585.06;5119423;27;20289;-87
2022/08/20 11:09:10;;;;;;;7.95;2.80;;;;;;;40.41;18.42;101584.41;5112374;27;20441;-88
2022/08/20 11:11:36;;;;;;;6.03;2.78;;;;;;;40.35;19.11;101585.47;5106858;27;20049;-88
2022/08/20 11:14:04;;;;;;;8.07;2.95;;;;;;;40.11;18.09;101577.34;5113473;27;20030;-89
2022/08/20 11:16:29;;;;;;;7.93;3.28;;;;;;;39.91;19.12;101572.28;5102140;28;20290;-89
2022/08/20 11:18:54;;;;;;;7.97;3.42;;;;;;;39.91;18.98;101563.06;5102406;27;20138;-88